createdAt,value
2019-03-13T00:01:44.206Z,10.67
2019-03-13T00:04:13.737Z,11.40
2019-03-13T00:06:43.246Z,8.90
2019-03-13T00:09:13.374Z,12.00
2019-03-13T00:11:42.793Z,10.17
2019-03-13T00:14:12.304Z,9.03
2019-03-13T00:16:42.153Z,10.07
2019-03-13T00:19:11.568Z,10.30
2019-03-13T00:21:41.034Z,9.50
2019-03-13T00:24:10.591Z,8.93
2019-03-13T00:26:40.090Z,9.00
2019-03-13T00:29:09.479Z,9.03
2019-03-13T00:31:38.935Z,7.53
2019-03-13T00:34:08.450Z,7.97
2019-03-13T00:36:37.962Z,9.77
2019-03-13T00:39:07.855Z,8.80
2019-03-13T00:41:37.299Z,11.83
2019-03-13T00:44:06.843Z,8.80
2019-03-13T00:46:36.515Z,6.97
2019-03-13T00:49:06.034Z,8.80
2019-03-13T00:51:36.967Z,10.13
2019-03-13T00:54:08.115Z,9.20
2019-03-13T00:56:37.783Z,7.93
2019-03-13T00:59:07.377Z,10.27
2019-03-13T01:01:45.703Z,7.93
2019-03-13T01:04:34.148Z,7.93
2019-03-13T01:07:09.071Z,9.60
2019-03-13T01:09:38.645Z,6.60
2019-03-13T01:12:08.244Z,7.10
2019-03-13T01:14:37.696Z,7.40
2019-03-13T01:17:08.007Z,8.70
2019-03-13T01:19:37.524Z,7.40
2019-03-13T01:22:07.170Z,8.77
2019-03-13T01:24:36.616Z,10.03
2019-03-13T01:27:06.122Z,5.90
2019-03-13T01:29:35.589Z,7.40
2019-03-13T01:32:33.248Z,10.50
2019-03-13T01:35:11.299Z,10.07
2019-03-13T01:37:40.797Z,6.83
2019-03-13T01:40:11.356Z,8.67
2019-03-13T01:42:40.891Z,7.97
2019-03-13T01:45:11.074Z,8.87
2019-03-13T01:47:40.671Z,8.00
2019-03-13T01:50:10.444Z,9.47
2019-03-13T01:52:39.894Z,8.83
2019-03-13T01:55:10.312Z,8.23
2019-03-13T01:57:41.173Z,11.57
2019-03-13T02:00:11.860Z,13.10
2019-03-13T02:02:41.365Z,9.63
2019-03-13T02:05:11.011Z,14.20
2019-03-13T02:07:40.453Z,11.20
2019-03-13T02:10:10.574Z,13.43
2019-03-13T02:12:40.130Z,11.53
2019-03-13T02:15:10.520Z,10.57
2019-03-13T02:17:39.955Z,12.13
2019-03-13T02:20:09.975Z,13.33
2019-03-13T02:22:39.573Z,13.27
2019-03-13T02:25:09.028Z,14.40
2019-03-13T02:27:38.675Z,11.93
2019-03-13T02:30:09.449Z,12.77
2019-03-13T02:32:38.969Z,17.93
2019-03-13T02:35:08.418Z,15.00
2019-03-13T02:37:37.863Z,13.00
2019-03-13T02:40:08.827Z,18.13
2019-03-13T02:42:38.383Z,14.67
2019-03-13T02:45:09.233Z,15.77
2019-03-13T02:47:38.723Z,16.33
2019-03-13T02:50:08.926Z,12.77
2019-03-13T02:52:38.356Z,11.73
2019-03-13T02:55:08.313Z,11.20
2019-03-13T02:57:37.861Z,12.40
2019-03-13T03:00:11.533Z,11.50
2019-03-13T03:02:53.707Z,12.57
2019-03-13T03:05:23.264Z,14.43
2019-03-13T03:07:52.765Z,14.53
2019-03-13T03:10:22.228Z,15.60
2019-03-13T03:12:51.664Z,14.33
2019-03-13T03:15:21.289Z,15.33
2019-03-13T03:17:50.844Z,16.20
2019-03-13T03:20:21.105Z,18.00
2019-03-13T03:22:50.568Z,12.77
2019-03-13T03:25:20.203Z,14.10
2019-03-13T03:27:49.647Z,12.27
2019-03-13T03:30:21.342Z,13.23
2019-03-13T03:32:50.939Z,12.70
2019-03-13T03:35:20.430Z,14.83
2019-03-13T03:37:49.959Z,16.67
2019-03-13T03:40:22.333Z,23.10
2019-03-13T03:42:50.850Z,17.73
2019-03-13T03:45:20.351Z,19.77
2019-03-13T03:47:49.824Z,19.10
2019-03-13T03:50:19.371Z,20.97
2019-03-13T03:52:48.876Z,18.43
2019-03-13T03:55:18.473Z,20.40
2019-03-13T03:57:47.908Z,18.73
2019-03-13T04:00:17.735Z,21.60
2019-03-13T04:02:47.404Z,21.17
2019-03-13T04:05:16.970Z,13.37
2019-03-13T04:07:46.702Z,13.93
2019-03-13T04:10:16.184Z,17.67
2019-03-13T04:12:45.671Z,16.67
2019-03-13T04:15:15.739Z,16.83
2019-03-13T04:17:45.315Z,18.33
2019-03-13T04:20:14.984Z,16.97
2019-03-13T04:22:44.528Z,14.43
2019-03-13T04:25:32.185Z,16.47
2019-03-13T04:28:01.985Z,19.67
2019-03-13T04:30:31.424Z,14.70
2019-03-13T04:33:00.988Z,16.60
2019-03-13T04:35:30.521Z,17.50
2019-03-13T04:38:00.028Z,15.17
2019-03-13T04:40:29.693Z,14.43
2019-03-13T04:42:59.457Z,16.33
2019-03-13T04:45:28.989Z,25.57
2019-03-13T04:47:58.538Z,21.47
2019-03-13T04:50:27.963Z,27.93
2019-03-13T04:52:58.593Z,23.90
2019-03-13T04:55:28.149Z,28.87
2019-03-13T04:57:58.252Z,21.30
2019-03-13T05:00:27.648Z,17.50
2019-03-13T05:02:57.159Z,18.23
2019-03-13T05:06:06.090Z,22.33
2019-03-13T05:09:10.263Z,17.37
2019-03-13T05:11:39.678Z,21.00
2019-03-13T05:14:09.145Z,18.80
2019-03-13T05:16:38.729Z,23.87
2019-03-13T05:19:08.181Z,23.07
2019-03-13T05:21:37.572Z,29.40
2019-03-13T05:24:08.076Z,21.67
2019-03-13T05:26:42.726Z,22.20
2019-03-13T05:29:12.265Z,24.57
2019-03-13T05:31:41.794Z,25.67
2019-03-13T05:34:12.670Z,24.00
2019-03-13T05:36:42.516Z,29.03
2019-03-13T05:39:11.996Z,24.53
2019-03-13T05:41:41.508Z,22.43
2019-03-13T05:44:11.014Z,20.33
2019-03-13T05:46:40.460Z,18.07
2019-03-13T05:49:10.059Z,21.10
2019-03-13T05:51:39.675Z,21.10
2019-03-13T05:54:09.293Z,19.73
2019-03-13T05:56:40.763Z,16.47
2019-03-13T05:59:10.046Z,15.33
2019-03-13T06:01:39.593Z,16.07
2019-03-13T06:04:09.141Z,11.77
2019-03-13T06:06:39.784Z,11.80
2019-03-13T06:09:09.586Z,12.03
2019-03-13T06:11:38.983Z,10.60
2019-03-13T06:14:08.498Z,16.00
2019-03-13T06:16:38.055Z,12.63
2019-03-13T06:19:08.327Z,14.10
2019-03-13T06:21:37.880Z,14.97
2019-03-13T06:24:07.365Z,11.53
2019-03-13T06:26:37.057Z,14.10
2019-03-13T06:29:07.177Z,11.90
2019-03-13T06:31:36.609Z,13.27
2019-03-13T06:34:06.503Z,13.33
2019-03-13T06:36:36.663Z,19.03
2019-03-13T06:39:07.826Z,23.10
2019-03-13T06:41:37.325Z,19.87
2019-03-13T06:44:06.852Z,22.33
2019-03-13T06:46:36.295Z,20.77
2019-03-13T06:49:06.459Z,15.73
2019-03-13T06:51:36.084Z,13.80
2019-03-13T06:54:05.557Z,14.27
2019-03-13T06:56:35.004Z,11.33
2019-03-13T06:59:15.885Z,12.20
2019-03-13T07:02:13.418Z,11.13
2019-03-13T07:05:01.731Z,13.03
2019-03-13T07:07:38.446Z,14.40
2019-03-13T07:10:26.467Z,11.07
2019-03-13T07:13:05.326Z,14.60
2019-03-13T07:15:48.899Z,10.00
2019-03-13T07:18:24.241Z,13.67
2019-03-13T07:21:29.549Z,13.33
2019-03-13T07:24:12.780Z,10.03
2019-03-13T07:27:16.079Z,8.33
2019-03-13T07:29:57.964Z,9.43
2019-03-13T07:32:40.598Z,9.97
2019-03-13T07:35:38.176Z,8.43
2019-03-13T07:38:16.005Z,8.13
2019-03-13T07:41:06.796Z,11.57
2019-03-13T07:43:53.990Z,8.40
2019-03-13T07:47:00.454Z,10.07
2019-03-13T07:50:01.311Z,12.23
2019-03-13T07:52:50.839Z,10.00
2019-03-13T07:55:38.407Z,10.37
2019-03-13T07:58:24.143Z,9.03
2019-03-13T08:01:27.953Z,11.90
2019-03-13T08:04:19.255Z,10.83
2019-03-13T08:07:17.766Z,9.87
2019-03-13T08:13:27.401Z,6.70
2019-03-13T08:16:08.843Z,9.70
2019-03-13T08:19:03.359Z,9.00
2019-03-13T08:21:50.573Z,7.57
2019-03-13T08:24:39.004Z,12.27
2019-03-13T08:27:36.710Z,7.43
2019-03-13T08:30:20.564Z,11.93
2019-03-13T08:33:09.463Z,9.13
2019-03-13T08:35:56.687Z,9.60
2019-03-13T08:38:47.933Z,5.60
2019-03-13T08:41:30.131Z,6.50
2019-03-13T08:44:16.980Z,7.53
2019-03-13T08:47:17.386Z,9.13
2019-03-13T08:49:59.122Z,6.77
2019-03-13T08:52:41.582Z,5.03
2019-03-13T08:55:48.227Z,9.63
2019-03-13T08:58:30.664Z,13.97
2019-03-13T09:01:24.835Z,13.00
2019-03-13T09:04:09.817Z,13.63
2019-03-13T09:07:16.816Z,5.47
2019-03-13T09:10:08.173Z,5.67
2019-03-13T09:13:01.666Z,5.27
2019-03-13T09:15:42.958Z,10.87
2019-03-13T09:18:23.902Z,6.30
2019-03-13T09:21:18.180Z,13.63
2019-03-13T09:24:16.558Z,11.63
2019-03-13T09:27:16.675Z,6.80
2019-03-13T09:29:57.670Z,6.33
2019-03-13T09:32:43.783Z,9.10
2019-03-13T09:35:24.026Z,9.37
2019-03-13T09:38:05.540Z,11.20
2019-03-13T09:40:56.888Z,6.73
2019-03-13T09:43:42.666Z,9.50
2019-03-13T09:46:19.765Z,6.83
2019-03-13T09:49:08.394Z,6.03
2019-03-13T09:51:55.161Z,8.03
2019-03-13T09:54:38.534Z,6.97
2019-03-13T09:57:35.588Z,5.37
2019-03-13T10:00:25.660Z,5.97
2019-03-13T10:03:12.590Z,6.87
2019-03-13T10:06:06.887Z,4.93
2019-03-13T10:08:54.191Z,7.93
2019-03-13T10:11:28.979Z,5.67
2019-03-13T10:14:17.420Z,4.83
2019-03-13T10:17:18.176Z,6.30
2019-03-13T10:20:18.771Z,6.13
2019-03-13T10:22:59.023Z,7.63
2019-03-13T10:25:53.417Z,5.17
2019-03-13T10:28:28.636Z,5.40
2019-03-13T10:31:14.639Z,8.30
2019-03-13T10:33:59.858Z,6.47
2019-03-13T10:36:54.390Z,7.10
2019-03-13T10:39:41.687Z,7.00
2019-03-13T10:42:32.986Z,5.73
2019-03-13T10:45:19.996Z,6.37
2019-03-13T10:48:17.260Z,7.00
2019-03-13T10:51:05.762Z,6.33
2019-03-13T10:53:51.409Z,5.80
2019-03-13T10:56:43.197Z,7.43
2019-03-13T10:59:41.008Z,7.30
2019-03-13T11:02:28.167Z,6.80
2019-03-13T11:05:12.265Z,9.80
2019-03-13T11:07:59.304Z,10.20
2019-03-13T11:10:34.740Z,9.77
2019-03-13T11:13:29.025Z,8.80
2019-03-13T11:16:10.094Z,9.60
2019-03-13T11:18:54.542Z,6.43
2019-03-13T11:21:46.121Z,6.80
2019-03-13T11:24:25.042Z,7.40
2019-03-13T11:27:01.999Z,6.57
2019-03-13T11:29:56.280Z,5.57
2019-03-13T11:32:44.623Z,6.63
2019-03-13T11:35:32.041Z,5.97
2019-03-13T11:38:21.106Z,6.23
2019-03-13T11:41:15.534Z,4.97
2019-03-13T11:44:02.567Z,5.70
2019-03-13T11:46:48.057Z,8.10
2019-03-13T11:49:35.828Z,7.30
2019-03-13T11:52:39.510Z,7.97
2019-03-13T11:55:28.020Z,6.87
2019-03-13T11:58:19.162Z,5.57
2019-03-13T12:01:07.627Z,5.97
2019-03-13T12:04:01.680Z,5.43
2019-03-13T12:06:44.845Z,6.07
2019-03-13T12:09:38.850Z,6.10
2019-03-13T12:12:33.454Z,5.43
2019-03-13T12:15:15.266Z,6.57
2019-03-13T12:18:03.765Z,7.33
2019-03-13T12:20:38.891Z,4.50
2019-03-13T12:23:23.973Z,7.40
2019-03-13T12:26:07.687Z,10.33
2019-03-13T12:28:56.099Z,4.97
2019-03-13T12:31:56.375Z,5.87
2019-03-13T12:34:43.497Z,4.63
2019-03-13T12:37:21.448Z,6.07
2019-03-13T12:40:12.487Z,6.33
2019-03-13T12:43:03.924Z,7.13
2019-03-13T12:45:51.206Z,6.20
2019-03-13T12:48:30.726Z,4.67
2019-03-13T12:51:06.203Z,5.27
2019-03-13T12:53:45.705Z,33.90
2019-03-13T12:56:30.070Z,10.10
2019-03-13T12:59:20.997Z,4.80
2019-03-13T13:02:24.705Z,7.10
2019-03-13T13:05:11.105Z,6.97
2019-03-13T13:07:58.418Z,8.17
2019-03-13T13:10:59.466Z,6.20
2019-03-13T13:13:50.337Z,8.00
2019-03-13T13:16:33.923Z,6.37
2019-03-13T13:19:03.459Z,8.33
2019-03-13T13:21:32.922Z,12.50
2019-03-13T13:24:02.371Z,10.83
2019-03-13T13:26:31.872Z,11.00
2019-03-13T13:29:01.410Z,7.23
2019-03-13T13:31:31.062Z,4.90
2019-03-13T13:34:00.463Z,5.97
2019-03-13T13:36:29.929Z,9.67
2019-03-13T13:38:59.484Z,8.83
2019-03-13T13:41:28.928Z,8.30
2019-03-13T13:43:58.336Z,6.43
2019-03-13T13:46:32.581Z,7.67
2019-03-13T13:49:02.189Z,8.20
2019-03-13T13:51:32.871Z,12.70
2019-03-13T13:54:02.509Z,16.90
2019-03-13T13:56:32.001Z,20.57
2019-03-13T13:59:01.515Z,10.53
2019-03-13T14:01:30.993Z,14.03
2019-03-13T14:04:00.403Z,13.50
2019-03-13T14:06:29.919Z,13.83
2019-03-13T14:08:59.410Z,33.07
2019-03-13T14:11:29.254Z,23.37
2019-03-13T14:13:58.783Z,15.83
2019-03-13T14:16:28.276Z,31.53
2019-03-13T14:18:57.673Z,17.07
2019-03-13T14:21:27.145Z,19.57
2019-03-13T14:23:56.731Z,22.30
2019-03-13T14:26:26.185Z,21.47
2019-03-13T14:28:55.618Z,11.13
2019-03-13T14:31:25.300Z,18.50
2019-03-13T14:33:54.841Z,17.97
2019-03-13T14:36:24.335Z,17.13
2019-03-13T14:38:53.966Z,18.33
2019-03-13T14:41:26.406Z,11.63
2019-03-13T14:43:54.737Z,12.13
2019-03-13T14:46:24.242Z,20.60
2019-03-13T14:48:53.731Z,15.37
2019-03-13T14:51:23.257Z,21.87
2019-03-13T14:53:52.880Z,21.70
2019-03-13T14:56:22.361Z,31.60
2019-03-13T14:58:51.895Z,15.20
2019-03-13T15:01:21.436Z,52.20
2019-03-13T15:03:50.885Z,43.27
2019-03-13T15:06:20.451Z,40.93
2019-03-13T15:08:50.055Z,42.70
2019-03-13T15:11:19.604Z,69.57
2019-03-13T15:13:49.222Z,89.27
2019-03-13T15:16:18.946Z,48.50
2019-03-13T15:18:48.510Z,15.67
2019-03-13T15:21:17.980Z,21.27
2019-03-13T15:23:47.442Z,12.87
2019-03-13T15:26:16.942Z,21.87
2019-03-13T15:28:46.422Z,20.97
2019-03-13T15:31:15.965Z,12.80
2019-03-13T15:33:45.482Z,15.60
2019-03-13T15:36:14.931Z,20.57
2019-03-13T15:38:44.372Z,15.97
2019-03-13T15:41:13.886Z,18.33
2019-03-13T15:43:43.443Z,13.63
2019-03-13T15:46:12.944Z,14.43
2019-03-13T15:48:42.366Z,13.03
2019-03-13T15:51:11.872Z,17.43
2019-03-13T15:53:41.422Z,15.57
2019-03-13T15:56:10.919Z,16.07
2019-03-13T15:58:40.386Z,14.27
2019-03-13T16:01:10.180Z,17.93
2019-03-13T16:03:39.702Z,15.33
2019-03-13T16:06:09.156Z,28.57
2019-03-13T16:08:38.777Z,13.57
2019-03-13T16:11:08.260Z,25.83
2019-03-13T16:13:37.765Z,17.53
2019-03-13T16:16:08.638Z,13.80
2019-03-13T16:18:38.047Z,17.43
2019-03-13T16:21:07.527Z,16.50
2019-03-13T16:23:37.245Z,22.80
2019-03-13T16:26:06.685Z,16.77
2019-03-13T16:28:36.097Z,15.50
2019-03-13T16:31:06.107Z,15.90
2019-03-13T16:33:35.619Z,18.43
2019-03-13T16:36:05.076Z,13.37
2019-03-13T16:38:34.542Z,16.97
2019-03-13T16:41:04.121Z,17.07
2019-03-13T16:43:33.634Z,15.53
2019-03-13T16:46:03.309Z,14.87
2019-03-13T16:48:33.260Z,67.90
2019-03-13T16:51:02.735Z,29.00
2019-03-13T16:53:32.194Z,20.90
2019-03-13T16:56:01.682Z,19.50
2019-03-13T16:58:31.232Z,18.93
2019-03-13T17:01:00.917Z,20.20
2019-03-13T17:03:30.321Z,24.27
2019-03-13T17:05:59.785Z,19.10
2019-03-13T17:08:29.364Z,21.07
2019-03-13T17:10:58.834Z,18.50
2019-03-13T17:13:28.255Z,21.93
2019-03-13T17:15:57.783Z,20.63
2019-03-13T17:18:27.474Z,24.07
2019-03-13T17:20:57.081Z,22.27
2019-03-13T17:23:26.525Z,24.07
2019-03-13T17:25:55.983Z,20.80
2019-03-13T17:28:25.440Z,24.07
2019-03-13T17:30:55.175Z,23.67
2019-03-13T17:33:24.675Z,22.87
2019-03-13T17:35:54.104Z,26.90
2019-03-13T17:38:23.737Z,27.07
2019-03-13T17:40:53.274Z,20.87
2019-03-13T17:43:22.798Z,21.90
2019-03-13T17:45:52.297Z,20.67
2019-03-13T17:48:21.681Z,24.87
2019-03-13T17:50:51.159Z,20.93
2019-03-13T17:53:20.703Z,19.13
2019-03-13T17:55:50.154Z,22.03
2019-03-13T17:58:22.563Z,18.63
2019-03-13T18:00:52.189Z,19.17
2019-03-13T18:03:22.553Z,20.57
2019-03-13T18:05:52.105Z,21.33
2019-03-13T18:08:21.623Z,18.23
2019-03-13T18:10:51.111Z,18.07
2019-03-13T18:13:21.603Z,20.03
2019-03-13T18:15:51.105Z,19.40
2019-03-13T18:18:20.635Z,24.10
2019-03-13T18:20:50.071Z,20.43
2019-03-13T18:23:19.535Z,17.80
2019-03-13T18:25:49.087Z,19.07
2019-03-13T18:28:18.683Z,17.27
2019-03-13T18:30:48.170Z,20.10
2019-03-13T18:33:17.587Z,17.57
2019-03-13T18:35:47.067Z,17.57
2019-03-13T18:38:16.791Z,18.10
2019-03-13T18:40:46.335Z,17.30
2019-03-13T18:43:15.837Z,14.97
2019-03-13T18:45:45.349Z,17.03
2019-03-13T18:48:14.800Z,19.40
2019-03-13T18:50:44.272Z,18.23
2019-03-13T18:53:13.860Z,17.93
2019-03-13T18:55:43.319Z,18.37
2019-03-13T18:58:14.117Z,15.37
2019-03-13T19:00:43.906Z,16.83
2019-03-13T19:03:13.536Z,18.33
2019-03-13T19:05:43.082Z,15.87
2019-03-13T19:08:12.645Z,15.90
2019-03-13T19:10:42.151Z,15.07
2019-03-13T19:13:11.733Z,21.53
2019-03-13T19:15:41.218Z,18.80
2019-03-13T19:18:10.636Z,18.50
2019-03-13T19:20:40.147Z,19.37
2019-03-13T19:23:09.812Z,18.90
2019-03-13T19:25:39.252Z,19.77
2019-03-13T19:28:08.728Z,19.20
2019-03-13T19:30:38.364Z,25.17
2019-03-13T19:33:07.889Z,21.43
2019-03-13T19:35:37.339Z,27.03
2019-03-13T19:38:06.999Z,33.47
2019-03-13T19:40:36.442Z,45.73
2019-03-13T19:43:06.061Z,48.33
2019-03-13T19:45:38.316Z,35.10
2019-03-13T19:48:08.038Z,30.77
2019-03-13T19:50:37.508Z,31.97
2019-03-13T19:53:07.234Z,26.57
2019-03-13T19:55:36.720Z,24.87
2019-03-13T19:58:06.324Z,24.63
2019-03-13T20:00:35.829Z,23.70
2019-03-13T20:03:05.630Z,24.87
2019-03-13T20:05:45.274Z,29.30
2019-03-13T20:08:06.791Z,28.13
2019-03-13T20:10:36.357Z,24.80
2019-03-13T20:13:06.076Z,19.97
2019-03-13T20:15:35.577Z,24.30
2019-03-13T20:18:05.487Z,25.70
2019-03-13T20:20:34.952Z,28.20
2019-03-13T20:23:04.510Z,26.90
2019-03-13T20:25:36.030Z,28.33
2019-03-13T20:28:05.728Z,31.30
2019-03-13T20:30:36.257Z,31.37
2019-03-13T20:33:06.183Z,33.97
2019-03-13T20:35:37.028Z,28.73
2019-03-13T20:38:06.942Z,31.23
2019-03-13T20:40:36.497Z,29.57
2019-03-13T20:43:06.546Z,29.17
2019-03-13T20:45:36.181Z,28.37
2019-03-13T20:48:05.765Z,26.77
2019-03-13T20:50:37.667Z,34.70
2019-03-13T20:53:06.715Z,26.87
2019-03-13T20:55:36.232Z,28.17
2019-03-13T20:58:05.763Z,27.90
2019-03-13T21:00:35.254Z,26.30
2019-03-13T21:03:05.482Z,14.57
2019-03-13T21:05:34.965Z,14.67
2019-03-13T21:08:04.703Z,15.23
2019-03-13T21:10:34.152Z,12.23
2019-03-13T21:13:03.811Z,12.83
2019-03-13T21:15:33.553Z,12.93
2019-03-13T21:18:03.169Z,14.10
2019-03-13T21:20:32.692Z,17.27
2019-03-13T21:23:02.479Z,15.10
2019-03-13T21:25:32.054Z,15.37
2019-03-13T21:28:01.564Z,13.77
2019-03-13T21:30:31.150Z,14.77
2019-03-13T21:33:00.572Z,16.80
2019-03-13T21:35:30.043Z,16.93
2019-03-13T21:37:59.566Z,13.77
2019-03-13T21:40:32.195Z,15.87
2019-03-13T21:43:00.165Z,17.50
2019-03-13T21:45:40.376Z,13.87
2019-03-13T21:48:01.005Z,14.97
2019-03-13T21:50:30.462Z,15.33
2019-03-13T21:53:00.046Z,14.80
2019-03-13T21:55:29.518Z,19.13
2019-03-13T21:57:59.021Z,17.10
2019-03-13T22:00:28.844Z,12.67
2019-03-13T22:02:58.246Z,15.23
2019-03-13T22:05:27.842Z,12.47
2019-03-13T22:07:57.354Z,12.33
2019-03-13T22:10:26.813Z,13.43
2019-03-13T22:12:56.319Z,16.20
2019-03-13T22:15:25.838Z,16.03
2019-03-13T22:17:55.242Z,16.93
2019-03-13T22:20:24.736Z,14.50
2019-03-13T22:22:54.287Z,16.47
2019-03-13T22:25:23.786Z,15.33
2019-03-13T22:27:53.188Z,15.47
2019-03-13T22:30:22.921Z,14.27
2019-03-13T22:32:52.829Z,16.33
2019-03-13T22:35:22.283Z,16.30
2019-03-13T22:37:51.810Z,14.63
2019-03-13T22:40:21.384Z,13.90
2019-03-13T22:42:50.890Z,19.03
2019-03-13T22:45:20.532Z,13.77
2019-03-13T22:47:50.034Z,13.17
2019-03-13T22:50:19.629Z,18.50
2019-03-13T22:52:49.242Z,21.90
2019-03-13T22:55:18.919Z,18.33
2019-03-13T22:57:48.430Z,13.17
2019-03-13T23:00:56.403Z,15.80
2019-03-13T23:03:27.261Z,15.53
2019-03-13T23:05:57.536Z,18.70
2019-03-13T23:08:27.093Z,16.87
2019-03-13T23:10:56.638Z,13.97
2019-03-13T23:13:26.365Z,19.87
2019-03-13T23:15:55.859Z,15.73
2019-03-13T23:18:25.374Z,13.93
2019-03-13T23:20:54.815Z,19.47
2019-03-13T23:23:24.406Z,15.23
2019-03-13T23:25:53.865Z,21.07
2019-03-13T23:28:23.295Z,24.47
2019-03-13T23:30:53.038Z,23.20
2019-03-13T23:33:22.550Z,18.77
2019-03-13T23:35:51.987Z,21.50
2019-03-13T23:38:21.416Z,17.87
2019-03-13T23:40:50.863Z,16.97
2019-03-13T23:43:20.553Z,16.40
2019-03-13T23:45:50.031Z,14.73
2019-03-13T23:48:19.423Z,16.07
2019-03-13T23:50:48.882Z,15.60
2019-03-13T23:53:18.426Z,16.07
2019-03-13T23:55:47.851Z,15.13
2019-03-13T23:58:17.256Z,19.23
